Thunder radar more information blitzortung!


Radar de pluja more information rain snow radar


Visita la nostra xarxa de llocs de meteo:

Template documentation
and downloads

And another site



No particular awareness of the weather is required.    There are no Weather-warnings

Pagina Historial Weather Underground text

Diari Resum Octubre 27, 2017 Unitats:  Mètric    Imperial   Tant
« Previous Dia
SegĂźent Dia »
Diari Setmana Mensual Anual Personalitzada
  Maxima: Minima: Media:
Temperatura: 24.9 °C 13.0 °C 19 °C
Punt de rosada: 15.7 °C 9.8 °C 13.5 °C
Humitat: 94 % 44 % 72 %
Wind Speed: 14.8 km/h 0.0 km/h 4.5 km/h
RĂ fegues de vent: 14.8 km/h - -
Vent:- - South
Pression baro: 1028.0 hPa 1022.9 hPa -
Precipitacions: 0.0 mm    
Historical Graphs
 
 
Dades de taula per Octubre 27, 2017
Temps Temperatura Punt de rosada Pression baro Vent Wind Speed RĂ fegues de vent Humitat Rainfall Rate (Hourly)
00:00 14.8 °C 13.7 °C 1024.9 hPa Calm     93 % 0.0 mm
00:02 16.3 °C 14.3 °C 1028.0 hPa SW 1.9 km/h 1.9 km/h 88 % 0.0 mm
00:07 16.2 °C 14.2 °C 1028.0 hPa Calm     88 % 0.0 mm
00:10 14.3 °C 13.0 °C 1024.9 hPa SW 1.6 km/h 3.2 km/h 92 % 0.0 mm
00:12 16.1 °C 14.3 °C 1028.0 hPa SW 1.9 km/h   89 % 0.0 mm
00:17 16.1 °C 14.3 °C 1028.0 hPa SW 2.6 km/h 2.6 km/h 89 % 0.0 mm
00:20 14.3 °C 13.0 °C 1026.0 hPa SW 1.6 km/h 3.2 km/h 92 % 0.0 mm
00:30 14.6 °C 13.5 °C 1026.0 hPa Calm   1.6 km/h 93 % 0.0 mm
00:40 14.5 °C 13.4 °C 1026.0 hPa Calm     93 % 0.0 mm
00:50 14.5 °C 13.4 °C 1026.0 hPa Calm     93 % 0.0 mm
01:00 14.5 °C 13.4 °C 1026.0 hPa Calm     93 % 0.0 mm
01:10 14.3 °C 13.2 °C 1026.0 hPa Calm     93 % 0.0 mm
01:20 14.3 °C 13.2 °C 1026.0 hPa Calm     93 % 0.0 mm
01:30 14.2 °C 13.1 °C 1026.0 hPa Calm     93 % 0.0 mm
01:40 14.0 °C 12.9 °C 1026.0 hPa Calm     93 % 0.0 mm
01:50 13.9 °C 12.8 °C 1026.0 hPa Calm     93 % 0.0 mm
02:00 13.9 °C 12.8 °C 1026.0 hPa Calm     93 % 0.0 mm
02:10 13.7 °C 12.6 °C 1026.0 hPa ESE 1.6 km/h 3.2 km/h 93 % 0.0 mm
02:20 13.6 °C 12.5 °C 1026.0 hPa Calm     93 % 0.0 mm
02:30 13.5 °C 12.4 °C 1026.0 hPa Calm   1.6 km/h 93 % 0.0 mm
02:40 13.3 °C 12.2 °C 1026.0 hPa NNW 1.6 km/h 3.2 km/h 93 % 0.0 mm
02:50 13.2 °C 11.9 °C 1026.0 hPa Calm   1.6 km/h 92 % 0.0 mm
03:00 13.2 °C 11.9 °C 1026.0 hPa Calm   3.2 km/h 92 % 0.0 mm
03:10 13.2 °C 12.1 °C 1026.0 hPa Calm     93 % 0.0 mm
03:20 13.0 °C 11.7 °C 1026.0 hPa Calm   3.2 km/h 92 % 0.0 mm
03:30 13.0 °C 11.9 °C 1026.0 hPa Calm   1.6 km/h 93 % 0.0 mm
03:40 13.1 °C 12.0 °C 1026.0 hPa Calm     93 % 0.0 mm
03:50 13.3 °C 12.2 °C 1026.0 hPa Calm     93 % 0.0 mm
04:00 13.5 °C 12.6 °C 1024.9 hPa Calm     94 % 0.0 mm
04:10 13.7 °C 12.8 °C 1024.9 hPa Calm     94 % 0.0 mm
04:20 13.8 °C 12.8 °C 1026.0 hPa Calm     94 % 0.0 mm
04:30 14.0 °C 12.9 °C 1026.0 hPa Calm     93 % 0.0 mm
04:40 14.4 °C 13.4 °C 1026.0 hPa Calm     94 % 0.0 mm
04:50 15.1 °C 14.0 °C 1026.0 hPa WNW 1.6 km/h 1.6 km/h 93 % 0.0 mm
05:00 15.6 °C 14.3 °C 1026.0 hPa Calm     92 % 0.0 mm
05:10 15.7 °C 14.1 °C 1026.0 hPa Calm   3.2 km/h 90 % 0.0 mm
05:20 16.2 °C 14.2 °C 1027.0 hPa Calm   1.6 km/h 88 % 0.0 mm
10:30 16.6 °C 14.1 °C 1026.0 hPa SW 3.7 km/h 3.7 km/h 85 % 0.0 mm
10:35 16.7 °C 14.2 °C 1026.0 hPa SW 3.7 km/h   85 % 0.0 mm
10:40 17.1 °C 14.4 °C 1026.0 hPa South 3.5 km/h 3.5 km/h 84 % 0.0 mm
10:45 17.4 °C 14.5 °C 1026.0 hPa WSW 4.2 km/h 4.2 km/h 83 % 0.0 mm
10:50 17.3 °C 14.2 °C 1026.0 hPa SW 4.2 km/h 4.2 km/h 82 % 0.0 mm
10:55 17.8 °C 14.5 °C 1026.0 hPa SSW 3.7 km/h 3.7 km/h 81 % 0.0 mm
11:00 18.4 °C 14.9 °C 1026.0 hPa ESE 3.9 km/h 3.9 km/h 80 % 0.0 mm
11:05 18.4 °C 14.5 °C 1026.0 hPa ESE 3.7 km/h 3.7 km/h 78 % 0.0 mm
11:10 18.6 °C 14.7 °C 1024.9 hPa NE 3.7 km/h 3.7 km/h 78 % 0.0 mm
11:15 18.9 °C 15.0 °C 1024.9 hPa ENE 3.7 km/h 3.7 km/h 78 % 0.0 mm
11:20 19.3 °C 14.9 °C 1024.9 hPa ENE 2.3 km/h 2.3 km/h 76 % 0.0 mm
11:25 19.4 °C 15.1 °C 1024.9 hPa ENE 4.2 km/h 4.2 km/h 76 % 0.0 mm
11:30 19.3 °C 14.8 °C 1024.9 hPa NE 3.7 km/h 3.7 km/h 75 % 0.0 mm
11:35 19.4 °C 14.8 °C 1024.9 hPa ENE 5.6 km/h 5.6 km/h 75 % 0.0 mm
11:40 19.8 °C 15.4 °C 1026.0 hPa ENE 3.7 km/h 3.7 km/h 76 % 0.0 mm
11:45 19.8 °C 15.2 °C 1026.0 hPa NNE 5.6 km/h 5.6 km/h 75 % 0.0 mm
11:50 19.7 °C 15.2 °C 1026.0 hPa NNE 1.9 km/h 1.9 km/h 75 % 0.0 mm
11:55 19.7 °C 14.9 °C 1026.0 hPa NNE 7.4 km/h 7.4 km/h 74 % 0.0 mm
12:00 19.9 °C 14.9 °C 1026.0 hPa East 7.6 km/h 7.6 km/h 73 % 0.0 mm
12:05 19.9 °C 14.7 °C 1026.0 hPa NNE 7.4 km/h 7.4 km/h 72 % 0.0 mm
12:10 20.1 °C 14.4 °C 1026.0 hPa ENE 3.9 km/h 3.9 km/h 70 % 0.0 mm
12:15 20.3 °C 14.4 °C 1026.0 hPa NE 3.9 km/h 3.9 km/h 69 % 0.0 mm
12:20 20.5 °C 14.8 °C 1026.0 hPa East 6.9 km/h 6.9 km/h 70 % 0.0 mm
12:25 20.6 °C 14.7 °C 1026.0 hPa East 5.6 km/h 5.6 km/h 69 % 0.0 mm
12:30 20.7 °C 14.3 °C 1026.0 hPa NNE 7.4 km/h 7.4 km/h 67 % 0.0 mm
12:35 21.1 °C 15.2 °C 1026.0 hPa ENE 3.9 km/h 3.9 km/h 69 % 0.0 mm
12:40 21.2 °C 14.8 °C 1026.0 hPa ENE 3.9 km/h 3.9 km/h 67 % 0.0 mm
12:45 21.4 °C 15.2 °C 1026.0 hPa East 3.7 km/h 3.7 km/h 68 % 0.0 mm
12:50 21.7 °C 15.3 °C 1026.0 hPa ENE 5.6 km/h 5.6 km/h 67 % 0.0 mm
12:55 21.6 °C 15.2 °C 1024.9 hPa East 5.6 km/h 5.6 km/h 67 % 0.0 mm
12:56 21.7 °C 15.3 °C 1024.9 hPa East 3.7 km/h 3.7 km/h 67 % 0.0 mm
13:01 21.9 °C 15.3 °C 1024.9 hPa NNE 3.7 km/h 3.7 km/h 66 % 0.0 mm
13:06 22.1 °C 15.2 °C 1024.9 hPa NNE 4.7 km/h 4.7 km/h 65 % 0.0 mm
13:11 22.3 °C 15.4 °C 1024.9 hPa North 3.7 km/h   65 % 0.0 mm
13:16 22.4 °C 15.3 °C 1024.9 hPa ENE 4.2 km/h 4.2 km/h 64 % 0.0 mm
13:21 22.6 °C 15.2 °C 1024.9 hPa East 1.9 km/h 2.6 km/h 63 % 0.0 mm
13:26 22.8 °C 15.1 °C 1023.9 hPa SE 3.7 km/h 3.7 km/h 62 % 0.0 mm
13:31 23.1 °C 15.7 °C 1023.9 hPa NW 6.4 km/h 6.4 km/h 63 % 0.0 mm
13:36 23.3 °C 15.3 °C 1023.9 hPa SSE 5.6 km/h 5.6 km/h 61 % 0.0 mm
13:41 23.7 °C 15.7 °C 1022.9 hPa North 5.6 km/h 5.6 km/h 61 % 0.0 mm
13:46 24.0 °C 15.5 °C 1022.9 hPa NNW 5.6 km/h 5.6 km/h 59 % 0.0 mm
13:51 23.8 °C 15.3 °C 1022.9 hPa West 6.9 km/h 6.9 km/h 59 % 0.0 mm
13:56 23.9 °C 15.1 °C 1023.9 hPa WNW 5.6 km/h 5.6 km/h 58 % 0.0 mm
14:01 24.1 °C 14.2 °C 1023.9 hPa WNW 3.7 km/h 3.7 km/h 54 % 0.0 mm
14:06 24.2 °C 14.3 °C 1023.9 hPa WSW 5.8 km/h 5.8 km/h 54 % 0.0 mm
14:11 24.6 °C 14.9 °C 1023.9 hPa West 4.2 km/h 4.2 km/h 55 % 0.0 mm
14:16 24.7 °C 14.8 °C 1023.9 hPa West 7.4 km/h 7.4 km/h 54 % 0.0 mm
14:21 24.7 °C 14.5 °C 1023.9 hPa West 9.3 km/h 9.3 km/h 53 % 0.0 mm
14:26 24.9 °C 14.7 °C 1023.9 hPa SW 4.2 km/h 4.2 km/h 53 % 0.0 mm
14:31 24.6 °C 14.1 °C 1023.9 hPa West 5.6 km/h 5.6 km/h 52 % 0.0 mm
14:36 24.4 °C 13.3 °C 1023.9 hPa SW 9.3 km/h 9.3 km/h 50 % 0.0 mm
14:41 24.3 °C 13.2 °C 1023.9 hPa WSW 13.0 km/h 13.0 km/h 50 % 0.0 mm
14:46 24.2 °C 12.8 °C 1023.9 hPa SW 9.3 km/h 9.3 km/h 49 % 0.0 mm
14:51 24.1 °C 12.4 °C 1023.9 hPa WNW 11.1 km/h 11.1 km/h 48 % 0.0 mm
14:56 24.4 °C 13.0 °C 1022.9 hPa North 3.7 km/h 3.7 km/h 49 % 0.0 mm
15:01 24.5 °C 13.1 °C 1022.9 hPa WSW 7.4 km/h 7.4 km/h 49 % 0.0 mm
15:11 24.7 °C 13.3 °C 1022.9 hPa West 5.6 km/h 5.6 km/h 49 % 0.0 mm
15:16 24.6 °C 13.2 °C 1022.9 hPa West 5.6 km/h 5.6 km/h 49 % 0.0 mm
15:21 24.5 °C 12.8 °C 1022.9 hPa West 9.3 km/h 9.3 km/h 48 % 0.0 mm
15:26 24.5 °C 12.8 °C 1022.9 hPa SW 9.3 km/h 9.3 km/h 48 % 0.0 mm
15:31 24.6 °C 12.8 °C 1022.9 hPa WSW 7.4 km/h 7.4 km/h 48 % 0.0 mm
15:36 24.7 °C 12.9 °C 1022.9 hPa West 7.4 km/h 7.4 km/h 48 % 0.0 mm
15:41 24.9 °C 13.1 °C 1022.9 hPa West 13.0 km/h 13.0 km/h 48 % 0.0 mm
15:46 24.8 °C 12.7 °C 1022.9 hPa WSW 6.1 km/h 6.1 km/h 47 % 0.0 mm
15:51 24.7 °C 12.6 °C 1022.9 hPa West 13.0 km/h 13.0 km/h 47 % 0.0 mm
15:56 24.6 °C 12.2 °C 1022.9 hPa West 14.8 km/h 14.8 km/h 46 % 0.0 mm
16:01 24.6 °C 12.2 °C 1022.9 hPa WSW 7.9 km/h 7.9 km/h 46 % 0.0 mm
16:06 24.6 °C 12.2 °C 1022.9 hPa WSW 11.1 km/h 11.1 km/h 46 % 0.0 mm
16:11 24.6 °C 12.2 °C 1022.9 hPa WSW 9.3 km/h 9.3 km/h 46 % 0.0 mm
16:16 24.6 °C 12.2 °C 1022.9 hPa WNW 5.6 km/h 5.6 km/h 46 % 0.0 mm
16:21 24.6 °C 12.2 °C 1022.9 hPa SW 3.7 km/h 3.7 km/h 46 % 0.0 mm
16:26 24.7 °C 12.3 °C 1022.9 hPa West 7.4 km/h 7.4 km/h 46 % 0.0 mm
16:31 24.6 °C 12.2 °C 1022.9 hPa WSW 11.1 km/h 11.1 km/h 46 % 0.0 mm
16:36 24.5 °C 11.8 °C 1022.9 hPa WSW 9.3 km/h 9.3 km/h 45 % 0.0 mm
16:41 24.4 °C 11.7 °C 1022.9 hPa WSW 7.4 km/h 7.4 km/h 45 % 0.0 mm
16:46 24.6 °C 11.9 °C 1022.9 hPa West 5.6 km/h 5.6 km/h 45 % 0.0 mm
16:51 24.6 °C 11.9 °C 1022.9 hPa SW 6.1 km/h 6.1 km/h 45 % 0.0 mm
16:56 24.5 °C 11.8 °C 1022.9 hPa WNW 8.7 km/h 8.7 km/h 45 % 0.0 mm
17:01 24.6 °C 11.9 °C 1022.9 hPa WSW 5.6 km/h 5.6 km/h 45 % 0.0 mm
17:06 24.5 °C 11.8 °C 1022.9 hPa WSW 6.1 km/h 6.1 km/h 45 % 0.0 mm
17:11 24.5 °C 11.8 °C 1022.9 hPa WSW 6.9 km/h 6.9 km/h 45 % 0.0 mm
17:16 24.4 °C 11.3 °C 1022.9 hPa SW 7.9 km/h 7.9 km/h 44 % 0.0 mm
17:21 24.4 °C 11.7 °C 1022.9 hPa WSW 9.7 km/h 9.7 km/h 45 % 0.0 mm
17:26 24.3 °C 11.3 °C 1022.9 hPa WSW 9.3 km/h 9.3 km/h 44 % 0.0 mm
17:31 24.4 °C 11.3 °C 1022.9 hPa WSW 3.7 km/h 3.7 km/h 44 % 0.0 mm
17:36 24.3 °C 11.3 °C 1022.9 hPa SW 7.4 km/h 7.4 km/h 44 % 0.0 mm
17:41 24.2 °C 11.2 °C 1022.9 hPa SW 11.1 km/h 11.1 km/h 44 % 0.0 mm
17:46 24.2 °C 11.2 °C 1022.9 hPa West 3.7 km/h 3.7 km/h 44 % 0.0 mm
17:51 24.0 °C 11.0 °C 1022.9 hPa SW 5.6 km/h 5.6 km/h 44 % 0.0 mm
17:56 23.5 °C 10.6 °C 1023.9 hPa ENE 3.9 km/h 3.9 km/h 44 % 0.0 mm
18:03 22.5 °C 11.2 °C 1023.9 hPa ENE 7.4 km/h 7.4 km/h 49 % 0.0 mm
18:08 22.1 °C 11.8 °C 1023.9 hPa NE 7.4 km/h 7.4 km/h 52 % 0.0 mm
18:13 21.6 °C 12.4 °C 1023.9 hPa East 9.7 km/h 9.7 km/h 56 % 0.0 mm
18:18 21.2 °C 13.1 °C 1023.9 hPa ESE 5.6 km/h 5.6 km/h 60 % 0.0 mm
18:23 20.9 °C 13.1 °C 1023.9 hPa East 11.1 km/h 11.1 km/h 61 % 0.0 mm
18:28 20.7 °C 13.4 °C 1023.9 hPa NE 9.5 km/h 9.5 km/h 63 % 0.0 mm
18:33 20.5 °C 13.4 °C 1023.9 hPa East 13.0 km/h 13.0 km/h 64 % 0.0 mm
18:38 20.3 °C 13.7 °C 1023.9 hPa ENE 9.3 km/h 9.3 km/h 66 % 0.0 mm
18:43 20.1 °C 13.8 °C 1023.9 hPa ESE 10.0 km/h 10.0 km/h 67 % 0.0 mm
18:48 20.0 °C 13.7 °C 1023.9 hPa ESE 7.9 km/h 7.9 km/h 67 % 0.0 mm
18:53 19.8 °C 13.9 °C 1023.9 hPa ENE 12.6 km/h 12.6 km/h 69 % 0.0 mm
18:58 19.6 °C 14.2 °C 1023.9 hPa East 9.3 km/h 9.3 km/h 71 % 0.0 mm
19:03 19.4 °C 14.0 °C 1023.9 hPa ESE 9.3 km/h 9.3 km/h 71 % 0.0 mm
19:08 19.3 °C 14.1 °C 1023.9 hPa ENE 7.4 km/h 7.4 km/h 72 % 0.0 mm
19:13 19.2 °C 14.1 °C 1023.9 hPa ENE 5.6 km/h 5.6 km/h 72 % 0.0 mm
19:18 19.1 °C 14.2 °C 1023.9 hPa East 9.3 km/h 9.3 km/h 73 % 0.0 mm
19:23 19.0 °C 14.3 °C 1023.9 hPa ENE 10.0 km/h 10.0 km/h 74 % 0.0 mm
19:28 18.9 °C 14.4 °C 1023.9 hPa East 9.3 km/h 9.3 km/h 75 % 0.0 mm
19:33 18.9 °C 14.6 °C 1023.9 hPa ENE 7.4 km/h 7.4 km/h 76 % 0.0 mm
19:38 18.8 °C 14.3 °C 1023.9 hPa ENE 5.3 km/h 5.3 km/h 75 % 0.0 mm
19:43 18.7 °C 14.4 °C 1022.9 hPa NNE 4.2 km/h 4.2 km/h 76 % 0.0 mm
19:48 18.7 °C 14.4 °C 1022.9 hPa ENE 7.4 km/h 7.4 km/h 76 % 0.0 mm
19:53 18.6 °C 14.5 °C 1022.9 hPa NNE 3.7 km/h 3.7 km/h 77 % 0.0 mm
19:58 18.5 °C 14.4 °C 1023.9 hPa ENE 5.6 km/h 5.6 km/h 77 % 0.0 mm
20:00 16.3 °C 14.1 °C 1023.9 hPa Calm     87 % 0.0 mm
20:03 18.4 °C 14.3 °C 1023.9 hPa NNE 7.4 km/h 7.4 km/h 77 % 0.0 mm
20:08 18.5 °C 14.6 °C 1023.9 hPa NNE 7.4 km/h 7.4 km/h 78 % 0.0 mm
20:10 16.4 °C 14.1 °C 1023.9 hPa WSW 1.6 km/h 3.2 km/h 86 % 0.0 mm
20:13 18.5 °C 14.6 °C 1023.9 hPa ENE 9.3 km/h 9.3 km/h 78 % 0.0 mm
20:18 18.4 °C 14.5 °C 1023.9 hPa NNE 7.4 km/h 7.4 km/h 78 % 0.0 mm
20:20 16.4 °C 14.1 °C 1023.9 hPa Calm   1.6 km/h 86 % 0.0 mm
20:23 18.4 °C 14.5 °C 1024.9 hPa ENE 7.4 km/h 7.4 km/h 78 % 0.0 mm
20:28 18.3 °C 14.6 °C 1024.9 hPa ENE 7.4 km/h 7.4 km/h 79 % 0.0 mm
20:30 16.3 °C 13.9 °C 1023.9 hPa WSW 3.2 km/h 3.2 km/h 86 % 0.0 mm
20:33 18.2 °C 14.5 °C 1024.9 hPa ENE 8.7 km/h 8.7 km/h 79 % 0.0 mm
20:38 18.1 °C 14.4 °C 1024.9 hPa ENE 7.4 km/h 7.4 km/h 79 % 0.0 mm
20:40 16.2 °C 13.8 °C 1023.9 hPa WSW 1.6 km/h 3.2 km/h 86 % 0.0 mm
20:43 18.1 °C 14.4 °C 1024.9 hPa ENE 5.6 km/h 5.6 km/h 79 % 0.0 mm
20:48 18.0 °C 14.5 °C 1024.9 hPa East 3.7 km/h 3.7 km/h 80 % 0.0 mm
20:53 18.0 °C 14.3 °C 1024.9 hPa NNE 3.9 km/h 3.9 km/h 79 % 0.0 mm
20:58 17.8 °C 14.3 °C 1024.9 hPa NNW 2.3 km/h 2.3 km/h 80 % 0.0 mm
21:00 16.3 °C 13.6 °C 1023.9 hPa West 1.6 km/h 4.8 km/h 84 % 0.0 mm
21:08 17.8 °C 14.3 °C 1024.9 hPa SW 3.7 km/h 3.7 km/h 80 % 0.0 mm
21:10 16.5 °C 13.6 °C 1023.9 hPa Calm   4.8 km/h 83 % 0.0 mm
21:13 17.6 °C 14.1 °C 1024.9 hPa SW 3.7 km/h 3.7 km/h 80 % 0.0 mm
21:18 17.5 °C 14.0 °C 1024.9 hPa WSW 3.9 km/h   80 % 0.0 mm
21:20 16.4 °C 13.1 °C 1023.9 hPa WSW 4.8 km/h 8.0 km/h 81 % 0.0 mm
21:23 17.4 °C 14.1 °C 1024.9 hPa SSE 5.6 km/h 5.6 km/h 81 % 0.0 mm
21:28 17.3 °C 13.6 °C 1024.9 hPa SW 5.6 km/h 5.6 km/h 79 % 0.0 mm
21:30 16.2 °C 12.6 °C 1023.9 hPa West 8.0 km/h 9.7 km/h 79 % 0.0 mm
21:33 17.1 °C 13.6 °C 1024.9 hPa SW 3.7 km/h 3.7 km/h 80 % 0.0 mm
21:38 16.9 °C 13.6 °C 1024.9 hPa SW 3.7 km/h 3.7 km/h 81 % 0.0 mm
21:40 16.0 °C 12.3 °C 1023.9 hPa WSW 4.8 km/h 8.0 km/h 79 % 0.0 mm
21:43 16.8 °C 13.3 °C 1024.9 hPa SW 3.7 km/h 3.7 km/h 80 % 0.0 mm
21:48 16.8 °C 13.5 °C 1024.9 hPa WSW 2.6 km/h   81 % 0.0 mm
21:50 16.0 °C 11.9 °C 1024.9 hPa West 4.8 km/h 6.4 km/h 77 % 0.0 mm
21:53 16.8 °C 13.5 °C 1024.9 hPa SW 3.9 km/h 3.9 km/h 81 % 0.0 mm
21:58 16.7 °C 13.6 °C 1024.9 hPa SW 3.7 km/h 3.7 km/h 82 % 0.0 mm
22:00 15.8 °C 11.6 °C 1023.9 hPa West 3.2 km/h 4.8 km/h 76 % 0.0 mm
22:03 16.7 °C 13.8 °C 1024.9 hPa Calm     83 % 0.0 mm
22:08 16.7 °C 13.8 °C 1024.9 hPa Calm     83 % 0.0 mm
22:10 15.6 °C 11.2 °C 1023.9 hPa Calm   4.8 km/h 75 % 0.0 mm
22:13 16.8 °C 14.1 °C 1024.9 hPa Calm     84 % 0.0 mm
22:18 16.8 °C 14.1 °C 1024.9 hPa Calm     84 % 0.0 mm
22:20 15.4 °C 11.0 °C 1023.9 hPa WSW 1.6 km/h 1.6 km/h 75 % 0.0 mm
22:23 16.8 °C 14.1 °C 1024.9 hPa SW 3.2 km/h   84 % 0.0 mm
22:28 16.7 °C 13.8 °C 1024.9 hPa WSW 3.7 km/h 3.7 km/h 83 % 0.0 mm
22:30 15.2 °C 10.8 °C 1023.9 hPa Calm   3.2 km/h 75 % 0.0 mm
22:33 16.7 °C 13.8 °C 1024.9 hPa WSW 1.9 km/h 2.3 km/h 83 % 0.0 mm
22:38 16.7 °C 13.8 °C 1024.9 hPa WSW 3.7 km/h 3.7 km/h 83 % 0.0 mm
22:40 15.0 °C 10.6 °C 1023.9 hPa Calm   1.6 km/h 75 % 0.0 mm
22:43 16.7 °C 13.8 °C 1024.9 hPa WSW 3.7 km/h 3.7 km/h 83 % 0.0 mm
22:48 16.8 °C 14.1 °C 1024.9 hPa West 3.7 km/h   84 % 0.0 mm
22:50 14.9 °C 10.5 °C 1023.9 hPa Calm   6.4 km/h 75 % 0.0 mm
22:53 17.0 °C 13.9 °C 1024.9 hPa West 5.6 km/h 5.6 km/h 82 % 0.0 mm
22:58 17.1 °C 14.2 °C 1024.9 hPa West 1.9 km/h 1.9 km/h 83 % 0.0 mm
23:00 14.4 °C 10.2 °C 1023.9 hPa West 1.6 km/h 4.8 km/h 76 % 0.0 mm
23:03 17.0 °C 14.3 °C 1024.9 hPa Calm     84 % 0.0 mm
23:08 17.0 °C 14.3 °C 1024.9 hPa NW 1.9 km/h   84 % 0.0 mm
23:10 14.4 °C 10.2 °C 1023.9 hPa NW 3.2 km/h 6.4 km/h 76 % 0.0 mm
23:13 17.0 °C 14.3 °C 1024.9 hPa NNW 1.9 km/h   84 % 0.0 mm
23:18 17.1 °C 14.4 °C 1024.9 hPa WNW 3.7 km/h 3.7 km/h 84 % 0.0 mm
23:20 14.6 °C 10.4 °C 1023.9 hPa NNE 3.2 km/h 4.8 km/h 76 % 0.0 mm
23:23 17.0 °C 14.3 °C 1023.9 hPa SW 3.7 km/h 3.7 km/h 84 % 0.0 mm
23:28 16.9 °C 14.2 °C 1023.9 hPa Calm     84 % 0.0 mm
23:30 14.4 °C 10.2 °C 1023.9 hPa North 1.6 km/h 3.2 km/h 76 % 0.0 mm
23:33 17.1 °C 14.4 °C 1023.9 hPa SW 7.4 km/h 7.4 km/h 84 % 0.0 mm
23:38 16.9 °C 14.2 °C 1024.9 hPa SW 1.9 km/h 1.9 km/h 84 % 0.0 mm
23:40 14.2 °C 10.2 °C 1023.9 hPa NNW 3.2 km/h 4.8 km/h 77 % 0.0 mm
23:43 16.7 °C 14.0 °C 1024.9 hPa SW 1.9 km/h 1.9 km/h 84 % 0.0 mm
23:48 16.7 °C 14.2 °C 1024.9 hPa Calm     85 % 0.0 mm
23:50 13.8 °C 9.8 °C 1023.9 hPa Calm   3.2 km/h 77 % 0.0 mm
23:53 16.6 °C 14.1 °C 1023.9 hPa Calm     85 % 0.0 mm
23:58 16.6 °C 14.1 °C 1023.9 hPa SW 1.9 km/h   85 % 0.0 mm
Meteo Sesrovires
Elogis d' Weather Underground - 3.75 mb

Guio original per  Jim McMurry - jmcmurry@mwt.net Adaptat per a la plantilla per  Wim van der Kuil - Leuven-Template.eu

Trobareu la nostra informacio del temps tambe a:

Weather Underground

AWEKAS